sensor_id;sensor_type;location;lat;lon;timestamp;pressure;altitude;pressure_sealevel;temperature;humidity
51829;BME280;37881;48.024;8.774;2023-08-06T00:01:25;93296.94;;;12.81;100.00
51829;BME280;37881;48.024;8.774;2023-08-06T00:03:52;93295.38;;;12.79;100.00
51829;BME280;37881;48.024;8.774;2023-08-06T00:06:19;93298.84;;;12.71;100.00
51829;BME280;37881;48.024;8.774;2023-08-06T00:08:46;93304.69;;;12.60;100.00
51829;BME280;37881;48.024;8.774;2023-08-06T00:11:12;93295.78;;;12.56;100.00
51829;BME280;37881;48.024;8.774;2023-08-06T00:13:39;93302.75;;;12.48;100.00
51829;BME280;37881;48.024;8.774;2023-08-06T00:16:10;93301.00;;;12.28;100.00
51829;BME280;37881;48.024;8.774;2023-08-06T00:18:38;93310.69;;;12.20;100.00
51829;BME280;37881;48.024;8.774;2023-08-06T00:21:05;93314.75;;;12.03;100.00
51829;BME280;37881;48.024;8.774;2023-08-06T00:23:32;93311.25;;;12.02;100.00
51829;BME280;37881;48.024;8.774;2023-08-06T00:25:59;93307.59;;;11.92;100.00
51829;BME280;37881;48.024;8.774;2023-08-06T00:28:25;93314.75;;;11.90;100.00
51829;BME280;37881;48.024;8.774;2023-08-06T00:30:53;93303.16;;;11.82;100.00
51829;BME280;37881;48.024;8.774;2023-08-06T00:33:24;93309.00;;;11.71;100.00
51829;BME280;37881;48.024;8.774;2023-08-06T00:35:51;93313.59;;;11.74;100.00
51829;BME280;37881;48.024;8.774;2023-08-06T00:38:17;93304.69;;;11.70;100.00
51829;BME280;37881;48.024;8.774;2023-08-06T00:40:44;93298.53;;;11.79;100.00
51829;BME280;37881;48.024;8.774;2023-08-06T00:43:11;93283.75;;;11.89;100.00
51829;BME280;37881;48.024;8.774;2023-08-06T00:45:38;93286.50;;;12.02;100.00
51829;BME280;37881;48.024;8.774;2023-08-06T00:48:05;93292.53;;;12.23;100.00
51829;BME280;37881;48.024;8.774;2023-08-06T00:50:33;93290.00;;;12.28;100.00
51829;BME280;37881;48.024;8.774;2023-08-06T00:53:00;93291.41;;;12.46;100.00
51829;BME280;37881;48.024;8.774;2023-08-06T00:55:28;93290.84;;;12.51;100.00
51829;BME280;37881;48.024;8.774;2023-08-06T00:57:55;93286.31;;;12.57;100.00
51829;BME280;37881;48.024;8.774;2023-08-06T01:00:24;93295.00;;;12.68;100.00
51829;BME280;37881;48.024;8.774;2023-08-06T01:02:51;93285.06;;;12.71;100.00
51829;BME280;37881;48.024;8.774;2023-08-06T01:05:20;93287.44;;;12.82;100.00
51829;BME280;37881;48.024;8.774;2023-08-06T01:16:00;93273.28;;;13.05;100.00
51829;BME280;37881;48.024;8.774;2023-08-06T01:18:28;93275.47;;;12.75;100.00
51829;BME280;37881;48.024;8.774;2023-08-06T01:20:55;93278.47;;;12.68;100.00
51829;BME280;37881;48.024;8.774;2023-08-06T01:23:23;93275.72;;;12.68;100.00
51829;BME280;37881;48.024;8.774;2023-08-06T01:26:10;93260.56;;;12.86;100.00
51829;BME280;37881;48.024;8.774;2023-08-06T01:29:15;93254.81;;;12.93;100.00
51829;BME280;37881;48.024;8.774;2023-08-06T01:31:48;93250.53;;;12.92;100.00
51829;BME280;37881;48.024;8.774;2023-08-06T01:34:21;93242.31;;;12.79;100.00
51829;BME280;37881;48.024;8.774;2023-08-06T01:36:50;93255.44;;;12.75;100.00
51829;BME280;37881;48.024;8.774;2023-08-06T01:39:17;93250.84;;;12.72;100.00
51829;BME280;37881;48.024;8.774;2023-08-06T01:41:48;93242.38;;;12.66;100.00
51829;BME280;37881;48.024;8.774;2023-08-06T01:44:15;93241.06;;;12.58;100.00
51829;BME280;37881;48.024;8.774;2023-08-06T01:46:42;93238.81;;;12.44;100.00
51829;BME280;37881;48.024;8.774;2023-08-06T01:49:09;93235.19;;;12.34;100.00
51829;BME280;37881;48.024;8.774;2023-08-06T01:51:36;93234.44;;;11.95;100.00
51829;BME280;37881;48.024;8.774;2023-08-06T01:54:02;93232.59;;;11.92;100.00
51829;BME280;37881;48.024;8.774;2023-08-06T01:56:29;93227.97;;;11.89;100.00
51829;BME280;37881;48.024;8.774;2023-08-06T01:58:56;93225.44;;;11.82;100.00
51829;BME280;37881;48.024;8.774;2023-08-06T02:01:23;93226.84;;;11.73;100.00
51829;BME280;37881;48.024;8.774;2023-08-06T02:03:50;93222.13;;;11.74;100.00
51829;BME280;37881;48.024;8.774;2023-08-06T02:06:16;93213.97;;;11.70;100.00
51829;BME280;37881;48.024;8.774;2023-08-06T02:08:43;93218.16;;;11.62;100.00
51829;BME280;37881;48.024;8.774;2023-08-06T02:11:10;93231.34;;;11.54;100.00
51829;BME280;37881;48.024;8.774;2023-08-06T02:13:36;93229.91;;;11.37;100.00
51829;BME280;37881;48.024;8.774;2023-08-06T02:16:03;93235.06;;;11.35;100.00
51829;BME280;37881;48.024;8.774;2023-08-06T02:18:33;93233.28;;;11.28;100.00
51829;BME280;37881;48.024;8.774;2023-08-06T02:20:59;93232.63;;;11.24;100.00
51829;BME280;37881;48.024;8.774;2023-08-06T02:23:27;93238.44;;;11.13;100.00
51829;BME280;37881;48.024;8.774;2023-08-06T02:26:01;93234.69;;;11.07;100.00
51829;BME280;37881;48.024;8.774;2023-08-06T02:28:29;93230.13;;;11.00;100.00
51829;BME280;37881;48.024;8.774;2023-08-06T02:30:56;93228.31;;;11.10;100.00
51829;BME280;37881;48.024;8.774;2023-08-06T02:33:23;93234.59;;;11.11;100.00
51829;BME280;37881;48.024;8.774;2023-08-06T02:35:50;93237.31;;;11.11;100.00
51829;BME280;37881;48.024;8.774;2023-08-06T02:38:17;93233.22;;;11.03;100.00
51829;BME280;37881;48.024;8.774;2023-08-06T02:40:44;93229.69;;;10.89;100.00
51829;BME280;37881;48.024;8.774;2023-08-06T02:43:12;93227.19;;;10.95;100.00
51829;BME280;37881;48.024;8.774;2023-08-06T02:45:39;93219.09;;;11.17;100.00
51829;BME280;37881;48.024;8.774;2023-08-06T02:48:06;93225.72;;;11.32;100.00
51829;BME280;37881;48.024;8.774;2023-08-06T02:50:42;93225.06;;;11.41;100.00
51829;BME280;37881;48.024;8.774;2023-08-06T02:53:09;93210.69;;;11.50;100.00
51829;BME280;37881;48.024;8.774;2023-08-06T02:55:36;93209.03;;;11.52;100.00
51829;BME280;37881;48.024;8.774;2023-08-06T02:58:02;93213.22;;;11.57;100.00
51829;BME280;37881;48.024;8.774;2023-08-06T03:00:29;93211.63;;;11.30;100.00
51829;BME280;37881;48.024;8.774;2023-08-06T03:02:56;93205.50;;;11.39;100.00
51829;BME280;37881;48.024;8.774;2023-08-06T03:05:22;93206.19;;;11.56;100.00
51829;BME280;37881;48.024;8.774;2023-08-06T03:07:49;93191.00;;;11.51;100.00
51829;BME280;37881;48.024;8.774;2023-08-06T03:10:16;93193.66;;;11.68;100.00
51829;BME280;37881;48.024;8.774;2023-08-06T03:12:43;93192.97;;;11.76;100.00
51829;BME280;37881;48.024;8.774;2023-08-06T03:15:09;93196.63;;;11.73;100.00
51829;BME280;37881;48.024;8.774;2023-08-06T03:17:36;93192.00;;;11.57;100.00
51829;BME280;37881;48.024;8.774;2023-08-06T03:20:04;93190.56;;;11.66;100.00
51829;BME280;37881;48.024;8.774;2023-08-06T03:22:31;93188.81;;;11.72;100.00
51829;BME280;37881;48.024;8.774;2023-08-06T03:24:57;93195.41;;;11.74;100.00
51829;BME280;37881;48.024;8.774;2023-08-06T03:27:24;93183.63;;;11.74;100.00
51829;BME280;37881;48.024;8.774;2023-08-06T03:29:51;93184.66;;;11.67;100.00
51829;BME280;37881;48.024;8.774;2023-08-06T03:32:17;93182.31;;;11.78;100.00
51829;BME280;37881;48.024;8.774;2023-08-06T03:34:44;93182.97;;;11.83;100.00
51829;BME280;37881;48.024;8.774;2023-08-06T03:37:11;93195.19;;;11.94;100.00
51829;BME280;37881;48.024;8.774;2023-08-06T03:39:38;93190.56;;;12.04;100.00
51829;BME280;37881;48.024;8.774;2023-08-06T03:42:05;93192.31;;;12.11;100.00
51829;BME280;37881;48.024;8.774;2023-08-06T03:44:32;93195.38;;;12.13;100.00
51829;BME280;37881;48.024;8.774;2023-08-06T03:46:58;93195.81;;;12.24;100.00
51829;BME280;37881;48.024;8.774;2023-08-06T03:49:25;93189.72;;;12.29;100.00
51829;BME280;37881;48.024;8.774;2023-08-06T03:51:52;93197.59;;;12.05;100.00
51829;BME280;37881;48.024;8.774;2023-08-06T03:54:19;93206.19;;;11.94;100.00
51829;BME280;37881;48.024;8.774;2023-08-06T03:56:46;93208.50;;;11.83;100.00
51829;BME280;37881;48.024;8.774;2023-08-06T03:59:13;93203.41;;;11.69;100.00
51829;BME280;37881;48.024;8.774;2023-08-06T04:01:39;93212.22;;;11.76;100.00
51829;BME280;37881;48.024;8.774;2023-08-06T04:04:06;93212.78;;;11.84;100.00
51829;BME280;37881;48.024;8.774;2023-08-06T04:06:33;93215.19;;;11.82;100.00
51829;BME280;37881;48.024;8.774;2023-08-06T04:08:59;93214.88;;;11.80;100.00
51829;BME280;37881;48.024;8.774;2023-08-06T04:11:26;93225.09;;;11.92;100.00
51829;BME280;37881;48.024;8.774;2023-08-06T04:13:53;93220.91;;;11.88;100.00
51829;BME280;37881;48.024;8.774;2023-08-06T04:16:21;93226.41;;;11.88;100.00
51829;BME280;37881;48.024;8.774;2023-08-06T04:18:48;93218.94;;;12.01;100.00
51829;BME280;37881;48.024;8.774;2023-08-06T04:21:15;93209.25;;;11.96;100.00
51829;BME280;37881;48.024;8.774;2023-08-06T04:23:41;93217.06;;;11.85;100.00
51829;BME280;37881;48.024;8.774;2023-08-06T04:26:08;93204.34;;;11.91;100.00
51829;BME280;37881;48.024;8.774;2023-08-06T04:28:35;93204.41;;;11.88;100.00
51829;BME280;37881;48.024;8.774;2023-08-06T04:31:02;93202.69;;;11.94;100.00
51829;BME280;37881;48.024;8.774;2023-08-06T04:33:28;93185.59;;;11.86;100.00
51829;BME280;37881;48.024;8.774;2023-08-06T04:35:55;93181.53;;;11.78;100.00
51829;BME280;37881;48.024;8.774;2023-08-06T04:38:26;93194.63;;;11.87;100.00
51829;BME280;37881;48.024;8.774;2023-08-06T04:40:52;93194.53;;;11.90;100.00
51829;BME280;37881;48.024;8.774;2023-08-06T04:43:20;93199.28;;;11.90;100.00
51829;BME280;37881;48.024;8.774;2023-08-06T04:45:50;93201.44;;;11.82;100.00
51829;BME280;37881;48.024;8.774;2023-08-06T04:48:17;93199.81;;;11.97;100.00
51829;BME280;37881;48.024;8.774;2023-08-06T04:50:45;93194.84;;;12.05;100.00
51829;BME280;37881;48.024;8.774;2023-08-06T04:53:12;93188.94;;;11.94;100.00
51829;BME280;37881;48.024;8.774;2023-08-06T04:55:39;93194.75;;;11.96;100.00
51829;BME280;37881;48.024;8.774;2023-08-06T04:58:06;93195.94;;;12.08;100.00
51829;BME280;37881;48.024;8.774;2023-08-06T05:00:33;93197.38;;;12.12;100.00
51829;BME280;37881;48.024;8.774;2023-08-06T05:03:00;93197.16;;;12.07;100.00
51829;BME280;37881;48.024;8.774;2023-08-06T05:05:30;93191.91;;;11.99;100.00
51829;BME280;37881;48.024;8.774;2023-08-06T05:07:57;93196.75;;;11.95;100.00
51829;BME280;37881;48.024;8.774;2023-08-06T05:10:25;93188.50;;;11.95;100.00
51829;BME280;37881;48.024;8.774;2023-08-06T05:12:52;93190.44;;;11.95;100.00
51829;BME280;37881;48.024;8.774;2023-08-06T05:15:19;93192.88;;;12.06;100.00
51829;BME280;37881;48.024;8.774;2023-08-06T05:17:46;93195.09;;;11.98;100.00
51829;BME280;37881;48.024;8.774;2023-08-06T05:20:13;93189.47;;;11.89;100.00
51829;BME280;37881;48.024;8.774;2023-08-06T05:22:40;93195.31;;;11.91;100.00
51829;BME280;37881;48.024;8.774;2023-08-06T05:25:07;93186.25;;;12.03;100.00
51829;BME280;37881;48.024;8.774;2023-08-06T05:27:34;93194.00;;;11.95;100.00
51829;BME280;37881;48.024;8.774;2023-08-06T05:30:00;93195.19;;;11.82;100.00
51829;BME280;37881;48.024;8.774;2023-08-06T05:32:27;93194.97;;;12.02;100.00
51829;BME280;37881;48.024;8.774;2023-08-06T05:34:54;93198.34;;;12.18;100.00
51829;BME280;37881;48.024;8.774;2023-08-06T05:37:21;93203.28;;;12.24;100.00
51829;BME280;37881;48.024;8.774;2023-08-06T05:39:48;93211.84;;;12.38;100.00
51829;BME280;37881;48.024;8.774;2023-08-06T05:42:14;93210.53;;;12.30;100.00
51829;BME280;37881;48.024;8.774;2023-08-06T05:44:41;93229.44;;;12.41;100.00
51829;BME280;37881;48.024;8.774;2023-08-06T05:47:08;93224.06;;;12.37;100.00
51829;BME280;37881;48.024;8.774;2023-08-06T05:49:35;93224.28;;;12.30;100.00
51829;BME280;37881;48.024;8.774;2023-08-06T05:52:01;93221.78;;;12.10;100.00
51829;BME280;37881;48.024;8.774;2023-08-06T05:54:29;93223.25;;;11.89;100.00
51829;BME280;37881;48.024;8.774;2023-08-06T05:56:56;93230.94;;;11.94;100.00
51829;BME280;37881;48.024;8.774;2023-08-06T05:59:23;93228.06;;;12.11;100.00
51829;BME280;37881;48.024;8.774;2023-08-06T06:01:49;93236.41;;;12.20;100.00
51829;BME280;37881;48.024;8.774;2023-08-06T06:04:16;93235.63;;;12.32;100.00
51829;BME280;37881;48.024;8.774;2023-08-06T06:06:43;93226.19;;;12.21;100.00
51829;BME280;37881;48.024;8.774;2023-08-06T06:09:11;93220.78;;;12.30;100.00
51829;BME280;37881;48.024;8.774;2023-08-06T06:11:38;93226.66;;;12.54;100.00
51829;BME280;37881;48.024;8.774;2023-08-06T06:14:04;93229.75;;;12.56;100.00
51829;BME280;37881;48.024;8.774;2023-08-06T06:16:31;93226.13;;;12.46;100.00
51829;BME280;37881;48.024;8.774;2023-08-06T06:18:58;93229.25;;;12.35;100.00
51829;BME280;37881;48.024;8.774;2023-08-06T06:21:24;93228.34;;;12.73;100.00
51829;BME280;37881;48.024;8.774;2023-08-06T06:23:51;93223.63;;;12.74;100.00
51829;BME280;37881;48.024;8.774;2023-08-06T06:26:18;93226.13;;;12.81;100.00
51829;BME280;37881;48.024;8.774;2023-08-06T06:28:45;93230.63;;;12.53;100.00
51829;BME280;37881;48.024;8.774;2023-08-06T06:31:12;93239.63;;;12.53;100.00
51829;BME280;37881;48.024;8.774;2023-08-06T06:33:38;93227.91;;;12.40;100.00
51829;BME280;37881;48.024;8.774;2023-08-06T06:36:05;93236.50;;;12.42;100.00
51829;BME280;37881;48.024;8.774;2023-08-06T06:38:34;93240.56;;;12.37;100.00
51829;BME280;37881;48.024;8.774;2023-08-06T06:41:01;93243.84;;;12.45;100.00
51829;BME280;37881;48.024;8.774;2023-08-06T06:43:29;93254.84;;;12.45;100.00
51829;BME280;37881;48.024;8.774;2023-08-06T06:45:57;93255.84;;;12.38;100.00
51829;BME280;37881;48.024;8.774;2023-08-06T06:48:29;93260.88;;;12.53;100.00
51829;BME280;37881;48.024;8.774;2023-08-06T06:50:56;93257.31;;;12.65;100.00
51829;BME280;37881;48.024;8.774;2023-08-06T06:53:23;93254.13;;;12.67;100.00
51829;BME280;37881;48.024;8.774;2023-08-06T06:56:03;93262.13;;;12.52;100.00
51829;BME280;37881;48.024;8.774;2023-08-06T06:58:31;93257.81;;;12.51;100.00
51829;BME280;37881;48.024;8.774;2023-08-06T07:00:58;93264.88;;;12.52;100.00
51829;BME280;37881;48.024;8.774;2023-08-06T07:03:25;93270.38;;;12.52;100.00
51829;BME280;37881;48.024;8.774;2023-08-06T07:05:51;93271.41;;;12.67;100.00
51829;BME280;37881;48.024;8.774;2023-08-06T07:08:18;93285.44;;;12.95;100.00
51829;BME280;37881;48.024;8.774;2023-08-06T07:10:45;93279.34;;;12.78;100.00
51829;BME280;37881;48.024;8.774;2023-08-06T07:13:11;93280.78;;;12.70;100.00
51829;BME280;37881;48.024;8.774;2023-08-06T07:15:38;93275.63;;;12.59;100.00
51829;BME280;37881;48.024;8.774;2023-08-06T07:18:05;93274.75;;;12.97;100.00
51829;BME280;37881;48.024;8.774;2023-08-06T07:20:32;93288.63;;;13.28;100.00
51829;BME280;37881;48.024;8.774;2023-08-06T07:23:00;93280.72;;;13.17;100.00
51829;BME280;37881;48.024;8.774;2023-08-06T07:25:27;93280.78;;;13.27;100.00
51829;BME280;37881;48.024;8.774;2023-08-06T07:27:54;93291.19;;;12.88;100.00
51829;BME280;37881;48.024;8.774;2023-08-06T07:30:23;93298.81;;;13.06;100.00
51829;BME280;37881;48.024;8.774;2023-08-06T07:32:49;93289.84;;;13.49;100.00
51829;BME280;37881;48.024;8.774;2023-08-06T07:35:16;93292.69;;;13.36;100.00
51829;BME280;37881;48.024;8.774;2023-08-06T07:37:43;93289.31;;;12.85;100.00
51829;BME280;37881;48.024;8.774;2023-08-06T07:40:10;93291.84;;;12.92;100.00
51829;BME280;37881;48.024;8.774;2023-08-06T07:42:37;93285.13;;;12.58;100.00
51829;BME280;37881;48.024;8.774;2023-08-06T07:45:04;93291.09;;;12.44;100.00
51829;BME280;37881;48.024;8.774;2023-08-06T07:47:31;93283.13;;;12.58;100.00
51829;BME280;37881;48.024;8.774;2023-08-06T07:49:58;93285.88;;;12.93;100.00
51829;BME280;37881;48.024;8.774;2023-08-06T07:52:26;93293.81;;;12.91;100.00
51829;BME280;37881;48.024;8.774;2023-08-06T07:54:52;93295.47;;;12.89;100.00
51829;BME280;37881;48.024;8.774;2023-08-06T07:57:19;93298.50;;;12.69;100.00
51829;BME280;37881;48.024;8.774;2023-08-06T07:59:46;93297.00;;;12.55;100.00
51829;BME280;37881;48.024;8.774;2023-08-06T08:02:12;93294.13;;;12.58;100.00
51829;BME280;37881;48.024;8.774;2023-08-06T08:04:39;93302.66;;;12.26;100.00
51829;BME280;37881;48.024;8.774;2023-08-06T08:07:06;93299.03;;;12.16;100.00
51829;BME280;37881;48.024;8.774;2023-08-06T08:09:34;93294.19;;;12.20;100.00
51829;BME280;37881;48.024;8.774;2023-08-06T08:12:01;93288.91;;;12.26;100.00
51829;BME280;37881;48.024;8.774;2023-08-06T08:14:29;93297.06;;;12.04;100.00
51829;BME280;37881;48.024;8.774;2023-08-06T08:17:02;93293.63;;;12.25;100.00
51829;BME280;37881;48.024;8.774;2023-08-06T08:19:29;93292.19;;;12.33;100.00
51829;BME280;37881;48.024;8.774;2023-08-06T08:21:56;93291.63;;;12.38;100.00
51829;BME280;37881;48.024;8.774;2023-08-06T08:24:24;93295.69;;;12.47;100.00
51829;BME280;37881;48.024;8.774;2023-08-06T08:26:51;93299.34;;;12.31;100.00
51829;BME280;37881;48.024;8.774;2023-08-06T08:29:22;93297.03;;;12.42;100.00
51829;BME280;37881;48.024;8.774;2023-08-06T08:31:49;93302.75;;;12.48;100.00
51829;BME280;37881;48.024;8.774;2023-08-06T08:34:17;93293.81;;;12.56;100.00
51829;BME280;37881;48.024;8.774;2023-08-06T08:36:44;93294.28;;;12.29;100.00
51829;BME280;37881;48.024;8.774;2023-08-06T08:39:13;93313.44;;;12.20;100.00
51829;BME280;37881;48.024;8.774;2023-08-06T08:41:42;93306.50;;;12.28;100.00
51829;BME280;37881;48.024;8.774;2023-08-06T08:44:09;93307.34;;;12.51;100.00
51829;BME280;37881;48.024;8.774;2023-08-06T08:46:40;93304.91;;;12.66;100.00
51829;BME280;37881;48.024;8.774;2023-08-06T08:49:08;93314.38;;;12.99;100.00
51829;BME280;37881;48.024;8.774;2023-08-06T08:51:35;93311.41;;;13.29;100.00
51829;BME280;37881;48.024;8.774;2023-08-06T08:54:03;93316.00;;;13.45;100.00
51829;BME280;37881;48.024;8.774;2023-08-06T08:56:31;93314.53;;;13.53;100.00
51829;BME280;37881;48.024;8.774;2023-08-06T08:58:58;93315.25;;;14.29;100.00
51829;BME280;37881;48.024;8.774;2023-08-06T09:01:26;93310.03;;;14.81;100.00
51829;BME280;37881;48.024;8.774;2023-08-06T09:03:55;93322.41;;;16.57;100.00
51829;BME280;37881;48.024;8.774;2023-08-06T09:06:25;93315.19;;;17.17;100.00
51829;BME280;37881;48.024;8.774;2023-08-06T09:09:08;93309.75;;;17.23;100.00
51829;BME280;37881;48.024;8.774;2023-08-06T09:11:42;93315.50;;;17.73;100.00
51829;BME280;37881;48.024;8.774;2023-08-06T09:14:11;93321.84;;;16.86;100.00
51829;BME280;37881;48.024;8.774;2023-08-06T09:16:38;93328.03;;;15.59;100.00
51829;BME280;37881;48.024;8.774;2023-08-06T09:19:12;93336.06;;;15.29;100.00
51829;BME280;37881;48.024;8.774;2023-08-06T09:21:39;93346.00;;;14.49;100.00
51829;BME280;37881;48.024;8.774;2023-08-06T09:24:10;93346.34;;;14.61;100.00
51829;BME280;37881;48.024;8.774;2023-08-06T09:26:38;93358.31;;;14.57;100.00
51829;BME280;37881;48.024;8.774;2023-08-06T09:29:06;93341.00;;;14.57;100.00
51829;BME280;37881;48.024;8.774;2023-08-06T09:31:42;93357.13;;;14.05;100.00
51829;BME280;37881;48.024;8.774;2023-08-06T09:34:19;93348.97;;;13.70;100.00
51829;BME280;37881;48.024;8.774;2023-08-06T09:36:47;93355.13;;;13.74;100.00
51829;BME280;37881;48.024;8.774;2023-08-06T09:39:19;93347.69;;;14.15;100.00
51829;BME280;37881;48.024;8.774;2023-08-06T09:41:47;93339.63;;;13.99;100.00
51829;BME280;37881;48.024;8.774;2023-08-06T09:44:19;93348.56;;;14.44;100.00
51829;BME280;37881;48.024;8.774;2023-08-06T09:46:53;93356.91;;;14.53;100.00
51829;BME280;37881;48.024;8.774;2023-08-06T09:49:28;93349.84;;;15.11;100.00
51829;BME280;37881;48.024;8.774;2023-08-06T09:51:55;93347.13;;;15.29;100.00
51829;BME280;37881;48.024;8.774;2023-08-06T09:54:25;93347.06;;;15.11;100.00
51829;BME280;37881;48.024;8.774;2023-08-06T09:56:54;93342.16;;;15.89;100.00
51829;BME280;37881;48.024;8.774;2023-08-06T09:59:24;93337.56;;;15.49;100.00
51829;BME280;37881;48.024;8.774;2023-08-06T10:01:53;93353.38;;;15.67;100.00
51829;BME280;37881;48.024;8.774;2023-08-06T10:04:21;93351.03;;;16.11;100.00
51829;BME280;37881;48.024;8.774;2023-08-06T10:06:52;93349.72;;;15.79;100.00
51829;BME280;37881;48.024;8.774;2023-08-06T10:09:19;93364.47;;;15.48;100.00
51829;BME280;37881;48.024;8.774;2023-08-06T10:11:51;93355.84;;;15.83;100.00
51829;BME280;37881;48.024;8.774;2023-08-06T10:14:24;93351.63;;;16.15;100.00
51829;BME280;37881;48.024;8.774;2023-08-06T10:16:52;93350.69;;;17.04;100.00
51829;BME280;37881;48.024;8.774;2023-08-06T10:19:21;93350.84;;;17.00;100.00
51829;BME280;37881;48.024;8.774;2023-08-06T10:22:11;93357.19;;;16.15;100.00
51829;BME280;37881;48.024;8.774;2023-08-06T10:24:54;93357.72;;;15.77;100.00
51829;BME280;37881;48.024;8.774;2023-08-06T10:27:40;93367.38;;;15.63;100.00
51829;BME280;37881;48.024;8.774;2023-08-06T10:32:57;93371.81;;;15.97;100.00
51829;BME280;37881;48.024;8.774;2023-08-06T10:35:38;93358.03;;;15.51;100.00
51829;BME280;37881;48.024;8.774;2023-08-06T10:38:22;93374.72;;;16.12;100.00
51829;BME280;37881;48.024;8.774;2023-08-06T10:41:00;93377.44;;;16.40;100.00
51829;BME280;37881;48.024;8.774;2023-08-06T10:43:29;93379.63;;;16.69;100.00
51829;BME280;37881;48.024;8.774;2023-08-06T10:45:58;93371.06;;;17.64;100.00
51829;BME280;37881;48.024;8.774;2023-08-06T10:51:06;93363.78;;;17.90;100.00
51829;BME280;37881;48.024;8.774;2023-08-06T10:53:33;93380.16;;;18.63;100.00
51829;BME280;37881;48.024;8.774;2023-08-06T10:56:20;93377.53;;;17.46;100.00
51829;BME280;37881;48.024;8.774;2023-08-06T10:58:50;93369.78;;;17.50;100.00
51829;BME280;37881;48.024;8.774;2023-08-06T11:01:17;93372.09;;;17.03;100.00
51829;BME280;37881;48.024;8.774;2023-08-06T11:03:46;93362.19;;;17.35;100.00
51829;BME280;37881;48.024;8.774;2023-08-06T11:06:20;93372.53;;;17.35;100.00
51829;BME280;37881;48.024;8.774;2023-08-06T11:08:52;93374.81;;;16.88;100.00
51829;BME280;37881;48.024;8.774;2023-08-06T11:11:21;93365.66;;;16.12;100.00
51829;BME280;37881;48.024;8.774;2023-08-06T11:13:50;93384.19;;;16.39;100.00
51829;BME280;37881;48.024;8.774;2023-08-06T11:16:19;93376.09;;;16.17;100.00
51829;BME280;37881;48.024;8.774;2023-08-06T11:18:46;93387.34;;;15.67;100.00
51829;BME280;37881;48.024;8.774;2023-08-06T11:21:14;93399.28;;;16.38;100.00
51829;BME280;37881;48.024;8.774;2023-08-06T11:23:41;93381.63;;;17.02;100.00
51829;BME280;37881;48.024;8.774;2023-08-06T11:26:08;93386.34;;;16.87;100.00
51829;BME280;37881;48.024;8.774;2023-08-06T11:28:35;93383.97;;;16.52;100.00
51829;BME280;37881;48.024;8.774;2023-08-06T11:31:02;93391.53;;;15.90;100.00
51829;BME280;37881;48.024;8.774;2023-08-06T11:33:29;93385.81;;;16.03;100.00
51829;BME280;37881;48.024;8.774;2023-08-06T11:35:57;93388.69;;;16.27;100.00
51829;BME280;37881;48.024;8.774;2023-08-06T11:38:31;93398.56;;;15.91;100.00
51829;BME280;37881;48.024;8.774;2023-08-06T11:40:59;93400.09;;;15.37;100.00
51829;BME280;37881;48.024;8.774;2023-08-06T11:43:25;93409.28;;;15.15;100.00
51829;BME280;37881;48.024;8.774;2023-08-06T11:45:55;93402.53;;;15.35;100.00
51829;BME280;37881;48.024;8.774;2023-08-06T11:48:22;93420.66;;;15.45;100.00
51829;BME280;37881;48.024;8.774;2023-08-06T11:50:49;93414.34;;;15.17;100.00
51829;BME280;37881;48.024;8.774;2023-08-06T11:53:20;93409.03;;;14.82;100.00
51829;BME280;37881;48.024;8.774;2023-08-06T11:55:47;93421.38;;;14.59;100.00
51829;BME280;37881;48.024;8.774;2023-08-06T11:58:16;93426.03;;;14.71;100.00
51829;BME280;37881;48.024;8.774;2023-08-06T12:00:43;93428.41;;;14.91;100.00
51829;BME280;37881;48.024;8.774;2023-08-06T12:03:10;93439.69;;;15.15;100.00
51829;BME280;37881;48.024;8.774;2023-08-06T12:05:37;93447.56;;;15.45;100.00
51829;BME280;37881;48.024;8.774;2023-08-06T12:08:05;93443.97;;;15.07;100.00
51829;BME280;37881;48.024;8.774;2023-08-06T12:10:32;93449.34;;;14.48;100.00
51829;BME280;37881;48.024;8.774;2023-08-06T12:13:00;93456.06;;;13.94;100.00
51829;BME280;37881;48.024;8.774;2023-08-06T12:15:27;93478.13;;;13.94;100.00
51829;BME280;37881;48.024;8.774;2023-08-06T12:17:55;93471.38;;;13.73;100.00
51829;BME280;37881;48.024;8.774;2023-08-06T12:20:22;93486.41;;;13.94;100.00
51829;BME280;37881;48.024;8.774;2023-08-06T12:22:49;93474.41;;;14.10;100.00
51829;BME280;37881;48.024;8.774;2023-08-06T12:25:16;93463.56;;;13.71;100.00
51829;BME280;37881;48.024;8.774;2023-08-06T12:27:44;93477.28;;;13.84;100.00
51829;BME280;37881;48.024;8.774;2023-08-06T12:30:12;93486.47;;;13.21;100.00
51829;BME280;37881;48.024;8.774;2023-08-06T12:32:39;93485.00;;;13.89;100.00
51829;BME280;37881;48.024;8.774;2023-08-06T12:35:07;93477.28;;;14.28;100.00
51829;BME280;37881;48.024;8.774;2023-08-06T12:37:34;93482.34;;;15.14;100.00
51829;BME280;37881;48.024;8.774;2023-08-06T12:40:02;93475.25;;;15.04;100.00
51829;BME280;37881;48.024;8.774;2023-08-06T12:42:50;93477.41;;;15.00;100.00
51829;BME280;37881;48.024;8.774;2023-08-06T12:45:17;93475.06;;;14.14;100.00
51829;BME280;37881;48.024;8.774;2023-08-06T12:47:47;93487.00;;;13.89;100.00
51829;BME280;37881;48.024;8.774;2023-08-06T12:50:15;93478.56;;;14.36;100.00
51829;BME280;37881;48.024;8.774;2023-08-06T12:52:43;93474.47;;;14.41;100.00
51829;BME280;37881;48.024;8.774;2023-08-06T12:55:10;93489.31;;;14.88;100.00
51829;BME280;37881;48.024;8.774;2023-08-06T12:57:37;93483.59;;;15.13;100.00
51829;BME280;37881;48.024;8.774;2023-08-06T13:00:22;93480.84;;;14.82;100.00
51829;BME280;37881;48.024;8.774;2023-08-06T13:02:49;93488.63;;;15.06;100.00
51829;BME280;37881;48.024;8.774;2023-08-06T13:05:16;93477.44;;;15.18;100.00
51829;BME280;37881;48.024;8.774;2023-08-06T13:07:43;93492.34;;;15.12;100.00
51829;BME280;37881;48.024;8.774;2023-08-06T13:10:10;93500.44;;;15.06;100.00